CST,Max TemperatureF,Mean TemperatureF,Min TemperatureF,Max Dew PointF,MeanDew PointF,Min DewpointF,Max Humidity, Mean Humidity, Min Humidity, Max Sea Level PressureIn, Mean Sea Level PressureIn, Min Sea Level PressureIn, Max VisibilityMiles, Mean VisibilityMiles, Min VisibilityMiles, Max Wind SpeedMPH, Mean Wind SpeedMPH, Max Gust SpeedMPH,PrecipitationIn, CloudCover, Events, WindDirDegrees
2013-1-1,59,56,51,57,54,50,100,95,88,30.21,30.09,29.90,8,4,2,18,2,,5.60,8,Rain,335
2013-1-2,62,56,51,55,53,52,100,91,72,30.22,30.07,29.91,8,5,2,16,3,,4.65,8,Rain,8
2013-1-3,69,56,44,63,50,45,100,82,49,30.22,30.12,29.90,10,6,0,12,2,,0.00,4,Fog,286
2013-1-4,73,58,44,54,49,45,100,75,41,30.30,30.14,29.92,12,8,1,9,2,,0.00,3,,240
2013-1-5,75,62,48,52,49,45,94,69,34,30.32,30.15,29.92,10,9,6,5,2,,0.00,3,,282
2013-1-6,77,60,44,50,47,43,100,66,29,30.26,30.09,29.86,10,10,8,6,1,,0.00,1,,113
2013-1-7,75,60,44,50,48,43,93,67,38,30.22,30.05,29.83,10,10,8,13,3,,0.00,3,Rain,260
2013-1-8,68,62,55,54,51,48,88,70,52,30.16,30.00,29.77,10,10,8,15,4,,0.55,7,Rain,242
2013-1-9,75,62,48,52,46,41,100,62,29,30.18,30.04,29.81,20,11,8,18,4,22,0.00,3,,226
2013-1-10,77,60,44,50,46,43,93,65,29,30.28,30.12,29.88,10,9,5,10,3,,0.00,1,,275
2013-1-11,78,61,44,50,44,34,100,60,20,30.26,30.10,29.87,10,9,6,16,2,,0.00,3,,273
2013-1-12,77,62,48,52,46,43,93,61,29,30.21,30.05,29.82,12,10,10,13,3,,0.00,4,,254
2013-1-13,78,62,46,50,44,36,93,60,21,30.17,30.02,29.79,12,10,6,18,3,,0.00,4,,171
2013-1-14,78,62,46,50,42,32,93,58,18,30.18,30.04,29.79,10,9,6,22,3,,0.00,5,,190
2013-1-15,77,60,44,70,44,36,93,59,24,30.17,30.03,29.77,10,10,8,14,2,,0.00,4,,248
2013-1-16,75,60,44,46,36,14,87,47,16,30.22,30.05,29.79,10,10,7,17,2,23,0.00,6,,47
2013-1-17,66,58,50,32,20,14,41,24,18,30.35,30.19,29.91,10,10,10,9,3,,0.00,6,,47
2013-1-18,69,58,48,37,29,21,66,38,18,30.36,30.22,29.99,12,10,10,12,5,,0.00,4,,93
2013-1-19,73,58,42,41,36,30,81,51,22,30.33,30.18,29.96,10,8,6,6,1,,0.00,4,,265
2013-1-20,69,58,46,45,37,32,87,48,25,30.29,30.14,29.89,10,8,5,17,2,,0.00,7,,122
2013-1-21,73,62,50,48,43,37,77,54,29,30.26,30.12,29.88,10,9,8,10,5,,0.00,5,Rain,105
2013-1-22,75,60,44,46,41,34,87,57,23,30.29,30.14,29.92,10,9,6,9,1,,0.00,1,,139
2013-1-23,71,60,48,46,44,41,87,61,35,30.39,30.24,30.01,10,8,6,8,3,,0.00,5,,174
2013-1-24,77,60,42,46,41,34,93,58,21,30.41,30.24,29.99,10,8,3,9,4,,0.00,1,,131
2013-1-25,77,59,41,41,36,25,87,51,14,30.34,30.17,29.76,10,9,6,12,2,,0.00,0,,158
2013-1-26,77,60,42,43,37,27,81,48,16,30.27,30.12,29.91,10,9,7,7,1,,0.00,0,,71
2013-1-27,77,60,44,48,43,41,87,54,28,30.26,30.12,29.91,10,9,7,8,2,,0.00,3,,271
2013-1-28,77,62,48,52,45,41,87,59,28,30.31,30.15,29.94,10,9,7,13,2,,0.00,4,,268
2013-1-29,73,58,44,50,42,34,93,57,27,30.27,30.13,29.91,10,10,7,14,3,23,0.00,1,,263
2013-1-30,78,58,39,41,33,23,87,48,13,30.24,30.09,29.86,10,9,6,10,1,,0.00,2,,127
2013-1-31,80,60,41,37,33,28,81,40,15,30.24,30.09,29.87,10,9,6,10,2,,0.00,4,,315